createdAt,value
2019-01-21T00:00:59.639Z,20.12
2019-01-21T00:06:04.016Z,19.57
2019-01-21T00:08:37.010Z,19.17
2019-01-21T00:11:10.029Z,19.40
2019-01-21T00:13:43.332Z,20.35
2019-01-21T00:16:16.426Z,20.32
2019-01-21T00:18:49.340Z,20.20
2019-01-21T00:21:22.375Z,20.72
2019-01-21T00:23:55.072Z,19.92
2019-01-21T00:26:28.328Z,21.37
2019-01-21T00:29:01.329Z,20.97
2019-01-21T00:31:34.061Z,20.80
2019-01-21T00:34:06.942Z,19.95
2019-01-21T00:36:39.922Z,20.08
2019-01-21T00:39:12.572Z,19.75
2019-01-21T00:41:45.445Z,20.23
2019-01-21T00:44:18.077Z,21.00
2019-01-21T00:46:51.517Z,21.33
2019-01-21T00:49:24.334Z,21.23
2019-01-21T00:51:57.015Z,19.73
2019-01-21T00:54:29.715Z,21.62
2019-01-21T00:59:34.112Z,20.65
2019-01-21T01:02:07.081Z,20.48
2019-01-21T01:04:40.048Z,21.12
2019-01-21T01:07:13.468Z,19.52
2019-01-21T01:09:46.052Z,20.77
2019-01-21T01:12:18.894Z,20.55
2019-01-21T01:14:52.107Z,19.45
2019-01-21T01:17:25.126Z,19.60
2019-01-21T01:19:58.352Z,18.92
2019-01-21T01:22:31.430Z,19.95
2019-01-21T01:25:04.129Z,19.85
2019-01-21T01:27:37.103Z,19.57
2019-01-21T01:30:12.324Z,20.68
2019-01-21T01:32:45.022Z,19.25
2019-01-21T01:35:19.346Z,19.80
2019-01-21T01:37:52.098Z,19.50
2019-01-21T01:40:24.977Z,20.17
2019-01-21T01:42:57.659Z,21.60
2019-01-21T01:45:31.330Z,20.55
2019-01-21T01:48:06.347Z,19.90
2019-01-21T01:50:39.053Z,19.30
2019-01-21T01:53:12.168Z,19.87
2019-01-21T01:55:44.929Z,20.48
2019-01-21T01:58:17.685Z,19.17
2019-01-21T02:00:50.498Z,18.60
2019-01-21T02:03:22.956Z,21.35
2019-01-21T02:05:56.010Z,19.77
2019-01-21T02:08:29.001Z,19.80
2019-01-21T02:11:01.782Z,19.42
2019-01-21T02:16:05.923Z,20.17
2019-01-21T02:18:38.335Z,19.70
2019-01-21T02:21:11.128Z,19.82
2019-01-21T02:23:44.913Z,21.20
2019-01-21T02:26:24.669Z,20.10
2019-01-21T02:36:20.409Z,20.55
2019-01-21T02:39:48.762Z,18.82
2019-01-21T02:43:07.116Z,19.80
2019-01-21T02:47:18.559Z,19.45
2019-01-21T02:51:22.339Z,20.90
2019-01-21T02:54:45.652Z,18.90
2019-01-21T02:58:04.466Z,18.80
2019-01-21T03:01:51.537Z,19.80
2019-01-21T03:06:10.078Z,19.05
2019-01-21T03:09:50.346Z,20.85
2019-01-21T03:13:37.570Z,19.90
2019-01-21T03:17:25.342Z,19.80
2019-01-21T03:21:06.072Z,19.92
2019-01-21T03:25:02.367Z,19.62
2019-01-21T03:28:37.878Z,19.12
2019-01-21T03:32:53.679Z,19.57
2019-01-21T03:37:03.089Z,20.75
2019-01-21T03:40:58.455Z,19.17
2019-01-21T03:45:00.032Z,20.65
2019-01-21T03:48:31.904Z,20.48
2019-01-21T03:52:04.425Z,18.35
2019-01-21T03:54:51.046Z,20.82
2019-01-21T03:58:42.377Z,19.30
2019-01-21T04:02:17.015Z,19.17
2019-01-21T04:06:11.336Z,20.65
2019-01-21T04:10:10.057Z,20.17
2019-01-21T04:13:41.324Z,19.67
2019-01-21T04:17:18.890Z,20.30
2019-01-21T04:20:54.292Z,18.67
2019-01-21T04:25:10.630Z,19.37
2019-01-21T04:28:42.455Z,20.52
2019-01-21T04:32:22.998Z,19.07
2019-01-21T04:36:00.396Z,20.17
2019-01-21T04:39:26.504Z,19.67
2019-01-21T04:43:32.328Z,20.43
2019-01-21T04:47:36.389Z,20.20
2019-01-21T04:51:45.357Z,21.33
2019-01-21T04:55:32.904Z,20.90
2019-01-21T04:59:36.801Z,21.20
2019-01-21T05:06:26.779Z,24.67
2019-01-21T05:09:44.820Z,22.50
2019-01-21T05:13:05.414Z,22.70
2019-01-21T05:16:35.283Z,22.22
2019-01-21T05:20:09.329Z,22.45
2019-01-21T05:24:08.763Z,22.90
2019-01-21T05:27:41.783Z,20.85
2019-01-21T05:31:18.763Z,21.70
2019-01-21T05:38:29.824Z,21.23
2019-01-21T05:42:08.837Z,22.65
2019-01-21T05:46:06.321Z,22.67
2019-01-21T05:50:09.318Z,24.15
2019-01-21T05:53:52.775Z,20.88
2019-01-21T06:01:24.888Z,20.75
2019-01-21T06:04:45.809Z,20.75
2019-01-21T06:08:33.070Z,21.30
2019-01-21T06:12:00.884Z,22.27
2019-01-21T06:16:15.442Z,23.77
2019-01-21T06:19:47.762Z,23.25
2019-01-21T06:27:01.806Z,23.50
2019-01-21T06:30:48.764Z,22.93
2019-01-21T06:37:36.618Z,21.80
2019-01-21T06:41:17.069Z,23.20
2019-01-21T06:44:56.422Z,25.52
2019-01-21T06:48:41.761Z,25.30
2019-01-21T06:52:27.629Z,25.20
2019-01-21T06:56:26.761Z,23.98
2019-01-21T07:03:43.502Z,24.73
2019-01-21T07:07:19.053Z,24.35
2019-01-21T07:10:44.862Z,23.52
2019-01-21T07:14:41.398Z,27.58
2019-01-21T07:18:39.280Z,23.40
2019-01-21T07:22:55.783Z,26.77
2019-01-21T07:26:36.798Z,25.20
2019-01-21T07:43:49.898Z,24.10
2019-01-21T07:47:41.797Z,22.62
2019-01-21T07:55:00.995Z,24.75
2019-01-21T07:59:12.321Z,24.07
2019-01-21T08:02:30.506Z,23.77
2019-01-21T08:06:15.858Z,26.57
2019-01-21T08:10:33.300Z,26.45
2019-01-21T08:30:23.337Z,27.00
2019-01-21T08:33:40.725Z,28.98
2019-01-21T08:40:28.944Z,27.58
2019-01-21T08:44:13.843Z,27.10
2019-01-21T08:48:14.366Z,24.87
2019-01-21T08:51:43.465Z,27.05
2019-01-21T08:55:16.781Z,26.05
2019-01-21T09:04:50.407Z,31.97
2019-01-21T09:08:44.856Z,24.27
2019-01-21T09:12:32.826Z,25.12
2019-01-21T09:16:28.826Z,25.80
2019-01-21T09:20:33.307Z,26.50
2019-01-21T09:24:22.756Z,26.27
2019-01-21T09:31:29.306Z,27.95
2019-01-21T09:34:56.277Z,27.67
2019-01-21T09:38:32.310Z,31.68
2019-01-21T09:42:06.070Z,29.75
2019-01-21T09:45:31.658Z,30.45
2019-01-21T09:48:00.377Z,30.20
2019-01-21T09:50:32.316Z,27.98
2019-01-21T09:53:04.045Z,31.87
2019-01-21T09:55:35.781Z,32.28
2019-01-21T10:00:42.800Z,31.80
2019-01-21T10:05:46.873Z,34.95
2019-01-21T10:08:48.786Z,35.23
2019-01-21T10:21:21.817Z,35.40
2019-01-21T10:24:50.447Z,35.40
2019-01-21T10:28:29.989Z,36.00
2019-01-21T10:32:48.417Z,36.88
2019-01-21T10:36:21.485Z,35.78
2019-01-21T10:39:51.776Z,34.25
2019-01-21T10:43:35.296Z,32.90
2019-01-21T10:47:38.729Z,31.27
2019-01-21T10:54:17.756Z,32.88
2019-01-21T11:00:58.839Z,32.98
2019-01-21T11:04:09.866Z,31.90
2019-01-21T11:08:34.811Z,27.77
2019-01-21T11:12:24.774Z,32.10
2019-01-21T11:19:22.157Z,27.32
2019-01-21T11:22:12.738Z,29.63
2019-01-21T11:25:53.419Z,28.90
2019-01-21T11:29:37.787Z,30.95
2019-01-21T11:36:34.765Z,33.67
2019-01-21T11:43:47.301Z,30.90
2019-01-21T11:47:23.903Z,28.40
2019-01-21T11:50:42.626Z,31.15
2019-01-21T11:54:13.915Z,32.95
2019-01-21T11:57:51.563Z,32.23
2019-01-21T12:01:56.692Z,28.77
2019-01-21T12:08:55.063Z,28.60
2019-01-21T12:12:32.778Z,30.72
2019-01-21T12:15:44.822Z,28.63
2019-01-21T12:19:07.397Z,30.35
2019-01-21T12:22:45.310Z,32.13
2019-01-21T12:25:44.797Z,33.10
2019-01-21T12:29:10.593Z,29.90
2019-01-21T12:32:58.302Z,31.80
2019-01-21T12:36:07.777Z,30.32
2019-01-21T12:39:28.818Z,31.20
2019-01-21T12:43:06.757Z,30.95
2019-01-21T12:50:09.720Z,31.00
2019-01-21T13:02:53.610Z,30.43
2019-01-21T13:06:18.728Z,28.55
2019-01-21T13:12:32.689Z,31.60
2019-01-21T13:15:44.291Z,29.40
2019-01-21T13:19:39.549Z,31.82
2019-01-21T13:23:01.958Z,31.90
2019-01-21T13:26:33.568Z,27.93
2019-01-21T13:30:07.831Z,30.48
2019-01-21T13:33:23.763Z,29.98
2019-01-21T13:40:17.282Z,30.60
2019-01-21T13:43:37.431Z,30.68
2019-01-21T13:47:11.336Z,31.30
2019-01-21T13:50:19.291Z,29.40
2019-01-21T13:54:30.844Z,29.72
2019-01-21T13:58:21.348Z,26.50
2019-01-21T14:01:48.772Z,31.48
2019-01-21T14:05:38.023Z,28.83
2019-01-21T14:09:25.307Z,31.82
2019-01-21T14:12:11.740Z,28.98
2019-01-21T14:19:01.295Z,26.77
2019-01-21T14:22:58.297Z,26.60
2019-01-21T14:26:48.739Z,26.82
2019-01-21T14:33:29.784Z,27.45
2019-01-21T14:39:45.425Z,28.07
2019-01-21T14:43:30.407Z,29.57
2019-01-21T14:47:14.702Z,28.12
2019-01-21T14:54:02.800Z,28.95
2019-01-21T14:57:43.745Z,27.98
2019-01-21T15:01:08.957Z,26.25
2019-01-21T15:04:55.305Z,31.52
2019-01-21T15:08:12.338Z,36.88
2019-01-21T15:12:07.496Z,36.83
2019-01-21T15:16:07.309Z,37.15
2019-01-21T15:19:38.034Z,38.13
2019-01-21T15:23:11.041Z,36.93
2019-01-21T15:26:35.728Z,41.00
2019-01-21T15:33:39.047Z,42.43
2019-01-21T15:37:27.334Z,37.75
2019-01-21T15:41:19.092Z,37.93
2019-01-21T15:45:12.110Z,39.92
2019-01-21T15:49:00.125Z,39.48
2019-01-21T15:52:33.756Z,38.85
2019-01-21T15:59:25.441Z,40.88
2019-01-21T16:02:42.403Z,42.27
2019-01-21T16:06:04.711Z,41.02
2019-01-21T16:09:46.416Z,39.10
2019-01-21T16:13:17.279Z,39.33
2019-01-21T16:17:28.388Z,36.55
2019-01-21T16:20:18.301Z,41.98
2019-01-21T16:24:21.288Z,38.92
2019-01-21T16:27:05.558Z,36.15
2019-01-21T16:29:50.339Z,38.63
2019-01-21T16:33:51.752Z,39.70
2019-01-21T16:41:22.373Z,36.13
2019-01-21T16:43:54.300Z,31.52
2019-01-21T16:46:25.715Z,29.32
2019-01-21T16:48:57.315Z,30.20
2019-01-21T16:51:28.723Z,29.23
2019-01-21T16:56:31.298Z,32.10
2019-01-21T16:59:02.709Z,29.27
2019-01-21T17:04:04.747Z,30.05
2019-01-21T17:06:36.304Z,25.20
2019-01-21T17:09:12.345Z,27.30
2019-01-21T17:11:44.402Z,27.37
2019-01-21T17:14:15.731Z,27.05
2019-01-21T17:19:18.080Z,38.13
2019-01-21T17:21:49.373Z,41.00
2019-01-21T17:24:20.728Z,40.33
2019-01-21T17:29:23.432Z,44.93
2019-01-21T17:31:55.000Z,43.13
2019-01-21T17:37:07.683Z,41.90
2019-01-21T17:42:10.250Z,41.00
2019-01-21T17:44:41.699Z,41.33
2019-01-21T17:49:43.772Z,37.60
2019-01-21T17:54:45.867Z,42.93
2019-01-21T17:57:17.340Z,41.98
2019-01-21T17:59:48.725Z,40.30
2019-01-21T18:02:20.291Z,36.00
2019-01-21T18:04:52.299Z,32.55
2019-01-21T18:07:23.718Z,31.48
2019-01-21T18:12:25.745Z,28.73
2019-01-21T18:17:28.325Z,27.13
2019-01-21T18:19:59.752Z,32.83
2019-01-21T18:25:01.702Z,25.05
2019-01-21T18:30:03.903Z,25.65
2019-01-21T18:32:35.734Z,27.20
2019-01-21T18:37:40.754Z,25.88
2019-01-21T18:42:48.311Z,26.48
2019-01-21T18:45:27.359Z,24.37
2019-01-21T18:48:00.355Z,18.70
2019-01-21T18:50:32.501Z,20.48
2019-01-21T18:53:04.817Z,35.92
2019-01-21T18:55:36.824Z,31.62
2019-01-21T18:58:08.801Z,36.23
2019-01-21T19:00:40.812Z,33.40
2019-01-21T19:03:12.802Z,36.98
2019-01-21T19:05:44.761Z,37.20
2019-01-21T19:10:48.663Z,35.70
2019-01-21T19:13:20.925Z,38.92
2019-01-21T19:15:53.310Z,38.13
2019-01-21T19:18:25.331Z,37.53
2019-01-21T19:20:57.352Z,38.63
2019-01-21T19:23:29.538Z,34.03
2019-01-21T19:26:01.726Z,37.67
2019-01-21T19:31:05.269Z,35.70
2019-01-21T19:33:37.291Z,31.85
2019-01-21T19:36:09.842Z,33.40
2019-01-21T19:38:41.850Z,36.55
2019-01-21T19:41:13.811Z,32.45
2019-01-21T19:43:45.880Z,32.77
2019-01-21T19:46:17.847Z,28.83
2019-01-21T19:48:49.826Z,23.85
2019-01-21T19:51:21.807Z,19.37
2019-01-21T19:53:53.849Z,22.60
2019-01-21T19:56:25.808Z,20.40
2019-01-21T19:58:57.855Z,23.18
2019-01-21T20:01:29.807Z,26.37
2019-01-21T20:04:01.823Z,23.22
2019-01-21T20:06:33.801Z,23.92
2019-01-21T20:09:08.381Z,21.15
2019-01-21T20:11:40.764Z,23.42
2019-01-21T20:16:44.085Z,19.80
2019-01-21T20:19:16.890Z,18.65
2019-01-21T20:21:48.813Z,22.02
2019-01-21T20:24:20.873Z,19.73
2019-01-21T20:26:52.833Z,20.48
2019-01-21T20:29:24.847Z,19.60
2019-01-21T20:31:56.802Z,21.65
2019-01-21T20:34:28.869Z,18.27
2019-01-21T20:37:01.297Z,22.48
2019-01-21T20:39:33.797Z,19.55
2019-01-21T20:42:05.792Z,18.23
2019-01-21T20:44:38.514Z,18.50
2019-01-21T20:47:10.807Z,16.50
2019-01-21T20:49:43.831Z,17.75
2019-01-21T20:52:15.812Z,18.92
2019-01-21T20:54:47.984Z,19.17
2019-01-21T20:57:21.022Z,17.40
2019-01-21T20:59:53.857Z,21.37
2019-01-21T21:02:25.996Z,20.35
2019-01-21T21:04:59.394Z,19.40
2019-01-21T21:07:33.054Z,17.75
2019-01-21T21:10:07.361Z,18.98
2019-01-21T21:12:40.303Z,19.10
2019-01-21T21:15:24.318Z,17.60
2019-01-21T21:17:59.100Z,17.90
2019-01-21T21:20:32.051Z,18.10
2019-01-21T21:23:05.019Z,17.05
2019-01-21T21:25:38.049Z,18.27
2019-01-21T21:28:11.318Z,18.02
2019-01-21T21:30:44.559Z,20.82
2019-01-21T21:33:17.256Z,18.70
2019-01-21T21:35:50.299Z,19.60
2019-01-21T21:38:23.059Z,16.32
2019-01-21T21:40:56.289Z,17.45
2019-01-21T21:43:29.058Z,18.90
2019-01-21T21:46:02.838Z,17.60
2019-01-21T21:48:35.471Z,17.82
2019-01-21T21:51:08.304Z,18.90
2019-01-21T21:53:41.295Z,18.02
2019-01-21T21:56:15.038Z,16.52
2019-01-21T21:58:48.268Z,17.95
2019-01-21T22:01:24.005Z,17.10
2019-01-21T22:03:56.105Z,16.42
2019-01-21T22:06:28.856Z,18.95
2019-01-21T22:09:01.554Z,17.40
2019-01-21T22:11:33.985Z,16.67
2019-01-21T22:14:07.373Z,19.55
2019-01-21T22:16:40.301Z,18.85
2019-01-21T22:19:13.409Z,17.98
2019-01-21T22:21:45.856Z,16.17
2019-01-21T22:24:18.330Z,17.77
2019-01-21T22:26:50.264Z,17.87
2019-01-21T22:29:22.381Z,18.48
2019-01-21T22:31:54.057Z,17.20
2019-01-21T22:34:26.474Z,18.30
2019-01-21T22:36:58.061Z,18.10
2019-01-21T22:39:29.756Z,17.82
2019-01-21T22:44:32.294Z,16.40
2019-01-21T22:47:04.052Z,17.57
2019-01-21T22:49:35.722Z,16.02
2019-01-21T22:53:13.297Z,17.43
2019-01-21T22:55:44.870Z,17.67
2019-01-21T22:58:16.420Z,18.70
2019-01-21T23:01:32.753Z,16.23
2019-01-21T23:04:04.613Z,19.70
2019-01-21T23:06:36.384Z,17.05
2019-01-21T23:09:11.277Z,16.75
2019-01-21T23:11:42.828Z,18.00
2019-01-21T23:14:14.585Z,17.02
2019-01-21T23:16:46.333Z,17.92
2019-01-21T23:19:17.837Z,17.50
2019-01-21T23:21:49.610Z,18.35
2019-01-21T23:24:21.722Z,16.87
2019-01-21T23:26:53.352Z,17.40
2019-01-21T23:29:25.583Z,18.90
2019-01-21T23:31:57.366Z,18.07
2019-01-21T23:34:29.748Z,20.90
2019-01-21T23:39:32.638Z,16.00
2019-01-21T23:42:04.901Z,17.20
2019-01-21T23:44:36.775Z,16.60
2019-01-21T23:52:10.260Z,16.52
2019-01-21T23:54:41.857Z,21.20
2019-01-21T23:57:13.786Z,15.60
